MET'MAP v2.0
soon released !

Expected late october,
this new version will be
more efficient, smarter,
and hosted on a brand new
server x3 powerfull...
...and still free !


Not compatible ?
Try the mobile version !

LOG IN : | Subscribe | Disclaimer | Who is Orbifly ? |
ICAO code :

TAF - GMFF Fez Saiss - 15 Nov 2019 19:02 UTC - Data Source NOAA   


- Airport Elevation : 1900 ft
- IATA code : FEZ
- No reported NOTAMs.


GMFF - Fez Saiss

Latest METAR recorded : 2015/08/11 08:00 GMFF 110800Z 05004KT 010V070 CAVOK 28/15 Q1017 NOSIG
TAF TAF GMFF
Valid from the 15 at 18:00 until the 17 at 00:00 UTC


151700Z 1518/1624 22016KT 9999 SCT013 BKN020 FEW033CB
TEMPO 1518/1523 22018G28KT 2000 SHRA
BECMG 1600/1602 RA SCT010 BKN020
BECMG 1609/1612 32008KT NSW
BECMG 1616/1620 CAVOK

Source NOAA


MET'MAP, your aeronautical weather chart ! - Copyright ORBIFLY December 2007

Programming & Development : Alexandra Zaïnal
Co-Developer : Marc-Olivier Méhu
Technical & hardware support : Manuel Goepfert
Concept & Financing : Baudouin d'Aumeries